sensor_id;sensor_type;location;lat;lon;timestamp;P1;durP1;ratioP1;P2;durP2;ratioP2
11396;SDS011;5754;43.726;7.416;2023-07-31T00:00:15;8.13;;;6.35;;
11396;SDS011;5754;43.726;7.416;2023-07-31T00:02:51;8.77;;;6.35;;
11396;SDS011;5754;43.726;7.416;2023-07-31T00:05:27;9.38;;;6.57;;
11396;SDS011;5754;43.726;7.416;2023-07-31T00:08:01;11.02;;;6.70;;
11396;SDS011;5754;43.726;7.416;2023-07-31T00:10:36;14.48;;;6.70;;
11396;SDS011;5754;43.726;7.416;2023-07-31T00:13:11;10.90;;;6.57;;
11396;SDS011;5754;43.726;7.416;2023-07-31T00:15:45;10.50;;;6.30;;
11396;SDS011;5754;43.726;7.416;2023-07-31T00:18:20;10.32;;;6.47;;
11396;SDS011;5754;43.726;7.416;2023-07-31T00:20:54;9.23;;;6.45;;
11396;SDS011;5754;43.726;7.416;2023-07-31T00:23:30;11.93;;;6.10;;
11396;SDS011;5754;43.726;7.416;2023-07-31T00:26:06;11.40;;;6.93;;
11396;SDS011;5754;43.726;7.416;2023-07-31T00:28:41;12.48;;;6.75;;
11396;SDS011;5754;43.726;7.416;2023-07-31T00:31:16;10.15;;;6.45;;
11396;SDS011;5754;43.726;7.416;2023-07-31T00:33:52;11.10;;;6.57;;
11396;SDS011;5754;43.726;7.416;2023-07-31T00:36:41;8.27;;;6.15;;
11396;SDS011;5754;43.726;7.416;2023-07-31T00:39:16;9.23;;;6.50;;
11396;SDS011;5754;43.726;7.416;2023-07-31T00:41:52;10.27;;;6.45;;
11396;SDS011;5754;43.726;7.416;2023-07-31T00:44:26;10.10;;;6.43;;
11396;SDS011;5754;43.726;7.416;2023-07-31T00:47:01;7.30;;;5.90;;
11396;SDS011;5754;43.726;7.416;2023-07-31T00:49:36;8.07;;;5.80;;
11396;SDS011;5754;43.726;7.416;2023-07-31T00:52:12;9.65;;;6.57;;
11396;SDS011;5754;43.726;7.416;2023-07-31T00:54:48;7.40;;;5.95;;
11396;SDS011;5754;43.726;7.416;2023-07-31T00:57:23;10.00;;;6.05;;
11396;SDS011;5754;43.726;7.416;2023-07-31T00:59:58;8.77;;;5.68;;
11396;SDS011;5754;43.726;7.416;2023-07-31T01:02:33;9.68;;;5.97;;
11396;SDS011;5754;43.726;7.416;2023-07-31T01:05:08;7.60;;;5.82;;
11396;SDS011;5754;43.726;7.416;2023-07-31T01:07:52;13.43;;;6.43;;
11396;SDS011;5754;43.726;7.416;2023-07-31T01:10:34;9.52;;;6.12;;
11396;SDS011;5754;43.726;7.416;2023-07-31T01:13:11;11.43;;;6.82;;
11396;SDS011;5754;43.726;7.416;2023-07-31T01:15:47;10.43;;;6.12;;
11396;SDS011;5754;43.726;7.416;2023-07-31T01:18:22;9.82;;;6.93;;
11396;SDS011;5754;43.726;7.416;2023-07-31T01:21:01;10.68;;;6.43;;
11396;SDS011;5754;43.726;7.416;2023-07-31T01:23:48;9.45;;;6.45;;
11396;SDS011;5754;43.726;7.416;2023-07-31T01:26:27;9.40;;;6.30;;
11396;SDS011;5754;43.726;7.416;2023-07-31T01:29:08;8.13;;;5.87;;
11396;SDS011;5754;43.726;7.416;2023-07-31T01:31:46;8.25;;;6.53;;
11396;SDS011;5754;43.726;7.416;2023-07-31T01:34:24;9.38;;;5.82;;
11396;SDS011;5754;43.726;7.416;2023-07-31T01:37:00;9.13;;;6.35;;
11396;SDS011;5754;43.726;7.416;2023-07-31T01:39:35;8.10;;;5.62;;
11396;SDS011;5754;43.726;7.416;2023-07-31T01:42:11;7.62;;;6.12;;
11396;SDS011;5754;43.726;7.416;2023-07-31T01:44:45;8.13;;;6.32;;
11396;SDS011;5754;43.726;7.416;2023-07-31T01:47:20;8.45;;;6.37;;
11396;SDS011;5754;43.726;7.416;2023-07-31T01:49:55;9.10;;;5.95;;
11396;SDS011;5754;43.726;7.416;2023-07-31T01:52:30;8.95;;;5.93;;
11396;SDS011;5754;43.726;7.416;2023-07-31T01:55:06;8.45;;;5.87;;
11396;SDS011;5754;43.726;7.416;2023-07-31T01:57:41;10.38;;;6.68;;
11396;SDS011;5754;43.726;7.416;2023-07-31T02:00:16;9.70;;;6.22;;
11396;SDS011;5754;43.726;7.416;2023-07-31T02:02:51;9.57;;;6.28;;
11396;SDS011;5754;43.726;7.416;2023-07-31T02:05:26;8.05;;;6.12;;
11396;SDS011;5754;43.726;7.416;2023-07-31T02:08:03;11.15;;;6.70;;
11396;SDS011;5754;43.726;7.416;2023-07-31T02:10:40;10.35;;;6.75;;
11396;SDS011;5754;43.726;7.416;2023-07-31T02:13:15;9.10;;;6.72;;
11396;SDS011;5754;43.726;7.416;2023-07-31T02:15:50;7.22;;;6.20;;
11396;SDS011;5754;43.726;7.416;2023-07-31T02:18:26;8.82;;;6.22;;
11396;SDS011;5754;43.726;7.416;2023-07-31T02:21:00;7.45;;;6.43;;
11396;SDS011;5754;43.726;7.416;2023-07-31T02:23:35;8.57;;;6.70;;
11396;SDS011;5754;43.726;7.416;2023-07-31T02:26:09;7.30;;;6.30;;
11396;SDS011;5754;43.726;7.416;2023-07-31T02:28:46;11.20;;;6.80;;
11396;SDS011;5754;43.726;7.416;2023-07-31T02:31:21;10.45;;;6.90;;
11396;SDS011;5754;43.726;7.416;2023-07-31T02:34:08;11.40;;;7.15;;
11396;SDS011;5754;43.726;7.416;2023-07-31T02:36:44;10.07;;;6.65;;
11396;SDS011;5754;43.726;7.416;2023-07-31T02:39:20;8.82;;;6.87;;
11396;SDS011;5754;43.726;7.416;2023-07-31T02:41:55;9.35;;;6.60;;
11396;SDS011;5754;43.726;7.416;2023-07-31T02:44:30;8.63;;;6.87;;
11396;SDS011;5754;43.726;7.416;2023-07-31T02:47:09;11.20;;;6.85;;
11396;SDS011;5754;43.726;7.416;2023-07-31T02:49:44;8.75;;;6.35;;
11396;SDS011;5754;43.726;7.416;2023-07-31T02:52:19;9.43;;;6.50;;
11396;SDS011;5754;43.726;7.416;2023-07-31T02:54:53;9.30;;;6.60;;
11396;SDS011;5754;43.726;7.416;2023-07-31T02:57:28;10.13;;;6.95;;
11396;SDS011;5754;43.726;7.416;2023-07-31T03:00:04;10.52;;;6.53;;
11396;SDS011;5754;43.726;7.416;2023-07-31T03:02:40;10.07;;;6.80;;
11396;SDS011;5754;43.726;7.416;2023-07-31T03:05:16;10.52;;;6.95;;
11396;SDS011;5754;43.726;7.416;2023-07-31T03:07:50;8.57;;;6.60;;
11396;SDS011;5754;43.726;7.416;2023-07-31T03:10:27;9.32;;;6.68;;
11396;SDS011;5754;43.726;7.416;2023-07-31T03:13:02;9.48;;;7.10;;
11396;SDS011;5754;43.726;7.416;2023-07-31T03:15:38;10.60;;;6.50;;
11396;SDS011;5754;43.726;7.416;2023-07-31T03:18:12;6.93;;;6.20;;
11396;SDS011;5754;43.726;7.416;2023-07-31T03:20:47;7.57;;;6.12;;
11396;SDS011;5754;43.726;7.416;2023-07-31T03:23:24;8.13;;;6.18;;
11396;SDS011;5754;43.726;7.416;2023-07-31T03:26:00;10.18;;;6.28;;
11396;SDS011;5754;43.726;7.416;2023-07-31T03:28:37;8.98;;;6.18;;
11396;SDS011;5754;43.726;7.416;2023-07-31T03:31:11;8.38;;;6.72;;
11396;SDS011;5754;43.726;7.416;2023-07-31T03:33:46;9.50;;;6.65;;
11396;SDS011;5754;43.726;7.416;2023-07-31T03:36:21;10.20;;;6.20;;
11396;SDS011;5754;43.726;7.416;2023-07-31T03:39:10;12.85;;;6.80;;
11396;SDS011;5754;43.726;7.416;2023-07-31T03:41:46;9.95;;;6.45;;
11396;SDS011;5754;43.726;7.416;2023-07-31T03:44:24;10.13;;;6.20;;
11396;SDS011;5754;43.726;7.416;2023-07-31T03:46:58;11.52;;;6.55;;
11396;SDS011;5754;43.726;7.416;2023-07-31T03:49:33;11.77;;;6.65;;
11396;SDS011;5754;43.726;7.416;2023-07-31T03:52:08;10.75;;;6.45;;
11396;SDS011;5754;43.726;7.416;2023-07-31T03:54:43;9.98;;;7.05;;
11396;SDS011;5754;43.726;7.416;2023-07-31T03:57:20;9.02;;;6.57;;
11396;SDS011;5754;43.726;7.416;2023-07-31T03:59:55;9.40;;;6.80;;
11396;SDS011;5754;43.726;7.416;2023-07-31T04:02:30;11.63;;;6.55;;
11396;SDS011;5754;43.726;7.416;2023-07-31T04:05:05;9.98;;;6.72;;
11396;SDS011;5754;43.726;7.416;2023-07-31T04:07:40;11.68;;;7.20;;
11396;SDS011;5754;43.726;7.416;2023-07-31T04:10:15;8.45;;;6.40;;
11396;SDS011;5754;43.726;7.416;2023-07-31T04:12:50;10.15;;;7.25;;
11396;SDS011;5754;43.726;7.416;2023-07-31T04:15:26;10.07;;;6.70;;
11396;SDS011;5754;43.726;7.416;2023-07-31T04:18:01;8.48;;;6.65;;
11396;SDS011;5754;43.726;7.416;2023-07-31T04:20:35;11.00;;;6.72;;
11396;SDS011;5754;43.726;7.416;2023-07-31T04:23:11;9.07;;;6.62;;
11396;SDS011;5754;43.726;7.416;2023-07-31T04:25:46;11.15;;;6.30;;
11396;SDS011;5754;43.726;7.416;2023-07-31T04:28:21;8.80;;;7.05;;
11396;SDS011;5754;43.726;7.416;2023-07-31T04:30:58;9.52;;;7.15;;
11396;SDS011;5754;43.726;7.416;2023-07-31T04:33:36;12.75;;;7.35;;
11396;SDS011;5754;43.726;7.416;2023-07-31T04:36:10;12.82;;;6.87;;
11396;SDS011;5754;43.726;7.416;2023-07-31T04:38:45;8.05;;;6.50;;
11396;SDS011;5754;43.726;7.416;2023-07-31T04:41:20;9.02;;;6.28;;
11396;SDS011;5754;43.726;7.416;2023-07-31T04:43:55;11.43;;;6.78;;
11396;SDS011;5754;43.726;7.416;2023-07-31T04:46:31;10.57;;;6.50;;
11396;SDS011;5754;43.726;7.416;2023-07-31T04:49:05;9.88;;;6.68;;
11396;SDS011;5754;43.726;7.416;2023-07-31T04:51:41;8.80;;;6.62;;
11396;SDS011;5754;43.726;7.416;2023-07-31T04:54:16;9.02;;;6.82;;
11396;SDS011;5754;43.726;7.416;2023-07-31T04:56:51;10.65;;;7.18;;
11396;SDS011;5754;43.726;7.416;2023-07-31T04:59:26;12.18;;;6.55;;
11396;SDS011;5754;43.726;7.416;2023-07-31T05:02:04;8.82;;;7.10;;
11396;SDS011;5754;43.726;7.416;2023-07-31T05:04:40;11.50;;;7.00;;
11396;SDS011;5754;43.726;7.416;2023-07-31T05:07:15;12.27;;;7.00;;
11396;SDS011;5754;43.726;7.416;2023-07-31T05:09:51;10.77;;;7.10;;
11396;SDS011;5754;43.726;7.416;2023-07-31T05:12:25;12.95;;;7.18;;
11396;SDS011;5754;43.726;7.416;2023-07-31T05:15:00;13.65;;;7.40;;
11396;SDS011;5754;43.726;7.416;2023-07-31T05:17:36;9.63;;;6.80;;
11396;SDS011;5754;43.726;7.416;2023-07-31T05:20:11;9.13;;;7.00;;
11396;SDS011;5754;43.726;7.416;2023-07-31T05:22:47;10.90;;;7.15;;
11396;SDS011;5754;43.726;7.416;2023-07-31T05:25:22;9.80;;;6.95;;
11396;SDS011;5754;43.726;7.416;2023-07-31T05:27:57;15.35;;;6.87;;
11396;SDS011;5754;43.726;7.416;2023-07-31T05:30:32;11.60;;;6.90;;
11396;SDS011;5754;43.726;7.416;2023-07-31T05:33:08;8.30;;;6.53;;
11396;SDS011;5754;43.726;7.416;2023-07-31T05:35:43;8.77;;;6.18;;
11396;SDS011;5754;43.726;7.416;2023-07-31T05:38:19;10.70;;;6.87;;
11396;SDS011;5754;43.726;7.416;2023-07-31T05:40:53;11.15;;;7.07;;
11396;SDS011;5754;43.726;7.416;2023-07-31T05:43:28;12.55;;;6.90;;
11396;SDS011;5754;43.726;7.416;2023-07-31T05:46:03;11.20;;;6.55;;
11396;SDS011;5754;43.726;7.416;2023-07-31T05:48:39;10.93;;;7.10;;
11396;SDS011;5754;43.726;7.416;2023-07-31T05:51:15;9.60;;;6.80;;
11396;SDS011;5754;43.726;7.416;2023-07-31T05:53:49;10.73;;;6.62;;
11396;SDS011;5754;43.726;7.416;2023-07-31T05:56:25;7.40;;;6.32;;
11396;SDS011;5754;43.726;7.416;2023-07-31T05:59:01;10.23;;;6.22;;
11396;SDS011;5754;43.726;7.416;2023-07-31T06:01:37;8.30;;;6.22;;
11396;SDS011;5754;43.726;7.416;2023-07-31T06:04:11;8.52;;;5.80;;
11396;SDS011;5754;43.726;7.416;2023-07-31T06:06:47;9.57;;;5.68;;
11396;SDS011;5754;43.726;7.416;2023-07-31T06:09:25;11.68;;;6.62;;
11396;SDS011;5754;43.726;7.416;2023-07-31T06:11:59;10.75;;;6.37;;
11396;SDS011;5754;43.726;7.416;2023-07-31T06:14:34;8.80;;;5.95;;
11396;SDS011;5754;43.726;7.416;2023-07-31T06:17:08;9.32;;;6.57;;
11396;SDS011;5754;43.726;7.416;2023-07-31T06:19:43;11.52;;;8.20;;
11396;SDS011;5754;43.726;7.416;2023-07-31T06:22:17;11.65;;;6.32;;
11396;SDS011;5754;43.726;7.416;2023-07-31T06:24:53;10.65;;;5.87;;
11396;SDS011;5754;43.726;7.416;2023-07-31T06:27:28;13.57;;;6.65;;
11396;SDS011;5754;43.726;7.416;2023-07-31T06:30:03;9.60;;;6.03;;
11396;SDS011;5754;43.726;7.416;2023-07-31T06:32:38;8.25;;;6.12;;
11396;SDS011;5754;43.726;7.416;2023-07-31T06:35:14;10.48;;;6.32;;
11396;SDS011;5754;43.726;7.416;2023-07-31T06:37:49;8.77;;;5.90;;
11396;SDS011;5754;43.726;7.416;2023-07-31T06:40:24;8.95;;;5.62;;
11396;SDS011;5754;43.726;7.416;2023-07-31T06:43:00;10.52;;;5.47;;
11396;SDS011;5754;43.726;7.416;2023-07-31T06:45:41;7.62;;;5.00;;
11396;SDS011;5754;43.726;7.416;2023-07-31T06:48:17;7.40;;;5.45;;
11396;SDS011;5754;43.726;7.416;2023-07-31T06:50:52;8.65;;;5.62;;
11396;SDS011;5754;43.726;7.416;2023-07-31T06:53:26;10.13;;;6.25;;
11396;SDS011;5754;43.726;7.416;2023-07-31T06:56:01;6.57;;;5.62;;
11396;SDS011;5754;43.726;7.416;2023-07-31T06:58:37;8.07;;;4.78;;
11396;SDS011;5754;43.726;7.416;2023-07-31T07:01:12;6.40;;;4.45;;
11396;SDS011;5754;43.726;7.416;2023-07-31T07:03:47;6.00;;;4.65;;
11396;SDS011;5754;43.726;7.416;2023-07-31T07:06:37;6.95;;;5.07;;
11396;SDS011;5754;43.726;7.416;2023-07-31T07:09:12;6.07;;;4.70;;
11396;SDS011;5754;43.726;7.416;2023-07-31T07:11:48;7.70;;;4.97;;
11396;SDS011;5754;43.726;7.416;2023-07-31T07:14:22;6.82;;;4.68;;
11396;SDS011;5754;43.726;7.416;2023-07-31T07:16:57;5.68;;;4.30;;
11396;SDS011;5754;43.726;7.416;2023-07-31T07:19:32;6.35;;;4.30;;
11396;SDS011;5754;43.726;7.416;2023-07-31T07:22:07;6.05;;;4.03;;
11396;SDS011;5754;43.726;7.416;2023-07-31T07:24:42;5.53;;;4.47;;
11396;SDS011;5754;43.726;7.416;2023-07-31T07:27:17;6.15;;;4.32;;
11396;SDS011;5754;43.726;7.416;2023-07-31T07:29:52;5.90;;;4.00;;
11396;SDS011;5754;43.726;7.416;2023-07-31T07:32:27;5.78;;;4.65;;
11396;SDS011;5754;43.726;7.416;2023-07-31T07:35:02;4.78;;;4.15;;
11396;SDS011;5754;43.726;7.416;2023-07-31T07:37:37;11.23;;;4.93;;
11396;SDS011;5754;43.726;7.416;2023-07-31T07:40:12;6.65;;;4.82;;
11396;SDS011;5754;43.726;7.416;2023-07-31T07:42:46;5.87;;;4.75;;
11396;SDS011;5754;43.726;7.416;2023-07-31T07:45:23;7.22;;;4.35;;
11396;SDS011;5754;43.726;7.416;2023-07-31T07:47:58;9.07;;;4.80;;
11396;SDS011;5754;43.726;7.416;2023-07-31T07:50:33;9.82;;;4.80;;
11396;SDS011;5754;43.726;7.416;2023-07-31T07:53:07;6.28;;;4.00;;
11396;SDS011;5754;43.726;7.416;2023-07-31T07:55:41;5.55;;;4.20;;
11396;SDS011;5754;43.726;7.416;2023-07-31T07:58:17;7.47;;;4.47;;
11396;SDS011;5754;43.726;7.416;2023-07-31T08:00:52;7.87;;;4.60;;
11396;SDS011;5754;43.726;7.416;2023-07-31T08:03:27;11.32;;;4.75;;
11396;SDS011;5754;43.726;7.416;2023-07-31T08:06:01;6.18;;;4.75;;
11396;SDS011;5754;43.726;7.416;2023-07-31T08:08:36;7.07;;;4.70;;
11396;SDS011;5754;43.726;7.416;2023-07-31T08:11:11;7.18;;;4.57;;
11396;SDS011;5754;43.726;7.416;2023-07-31T08:13:46;8.65;;;4.82;;
11396;SDS011;5754;43.726;7.416;2023-07-31T08:16:21;6.25;;;4.45;;
11396;SDS011;5754;43.726;7.416;2023-07-31T08:18:55;7.62;;;4.45;;
11396;SDS011;5754;43.726;7.416;2023-07-31T08:21:31;6.32;;;4.78;;
11396;SDS011;5754;43.726;7.416;2023-07-31T08:24:06;6.37;;;4.20;;
11396;SDS011;5754;43.726;7.416;2023-07-31T08:26:42;6.75;;;4.68;;
11396;SDS011;5754;43.726;7.416;2023-07-31T08:29:17;6.75;;;4.53;;
11396;SDS011;5754;43.726;7.416;2023-07-31T08:31:51;7.20;;;4.60;;
11396;SDS011;5754;43.726;7.416;2023-07-31T08:34:26;7.45;;;4.62;;
11396;SDS011;5754;43.726;7.416;2023-07-31T08:37:01;8.38;;;4.68;;
11396;SDS011;5754;43.726;7.416;2023-07-31T08:39:37;9.35;;;5.00;;
11396;SDS011;5754;43.726;7.416;2023-07-31T08:42:15;7.07;;;4.35;;
11396;SDS011;5754;43.726;7.416;2023-07-31T08:44:49;6.00;;;4.50;;
11396;SDS011;5754;43.726;7.416;2023-07-31T08:47:25;8.43;;;4.93;;
11396;SDS011;5754;43.726;7.416;2023-07-31T08:50:00;7.53;;;4.60;;
11396;SDS011;5754;43.726;7.416;2023-07-31T08:52:36;6.62;;;4.50;;
11396;SDS011;5754;43.726;7.416;2023-07-31T08:55:11;5.85;;;4.55;;
11396;SDS011;5754;43.726;7.416;2023-07-31T08:57:45;6.68;;;4.85;;
11396;SDS011;5754;43.726;7.416;2023-07-31T09:00:21;9.15;;;4.95;;
11396;SDS011;5754;43.726;7.416;2023-07-31T09:03:33;6.32;;;4.53;;
11396;SDS011;5754;43.726;7.416;2023-07-31T09:06:09;6.90;;;5.00;;
11396;SDS011;5754;43.726;7.416;2023-07-31T09:08:45;7.87;;;4.78;;
11396;SDS011;5754;43.726;7.416;2023-07-31T09:11:20;7.55;;;5.12;;
11396;SDS011;5754;43.726;7.416;2023-07-31T09:13:57;7.75;;;5.20;;
11396;SDS011;5754;43.726;7.416;2023-07-31T09:16:32;9.43;;;5.05;;
11396;SDS011;5754;43.726;7.416;2023-07-31T09:19:08;7.50;;;4.80;;
11396;SDS011;5754;43.726;7.416;2023-07-31T09:21:49;9.38;;;5.05;;
11396;SDS011;5754;43.726;7.416;2023-07-31T09:24:25;7.28;;;4.62;;
11396;SDS011;5754;43.726;7.416;2023-07-31T09:27:01;9.38;;;5.65;;
11396;SDS011;5754;43.726;7.416;2023-07-31T09:29:36;7.20;;;4.87;;
11396;SDS011;5754;43.726;7.416;2023-07-31T09:32:17;10.00;;;5.25;;
11396;SDS011;5754;43.726;7.416;2023-07-31T09:34:52;7.80;;;5.35;;
11396;SDS011;5754;43.726;7.416;2023-07-31T09:37:28;7.87;;;5.60;;
11396;SDS011;5754;43.726;7.416;2023-07-31T09:40:04;6.95;;;5.43;;
11396;SDS011;5754;43.726;7.416;2023-07-31T09:42:40;6.95;;;5.20;;
11396;SDS011;5754;43.726;7.416;2023-07-31T09:45:14;8.48;;;5.47;;
11396;SDS011;5754;43.726;7.416;2023-07-31T09:47:53;8.18;;;5.00;;
11396;SDS011;5754;43.726;7.416;2023-07-31T09:50:28;7.18;;;5.43;;
11396;SDS011;5754;43.726;7.416;2023-07-31T09:53:04;9.95;;;5.60;;
11396;SDS011;5754;43.726;7.416;2023-07-31T09:55:39;9.73;;;5.50;;
11396;SDS011;5754;43.726;7.416;2023-07-31T09:58:14;7.97;;;6.03;;
11396;SDS011;5754;43.726;7.416;2023-07-31T10:00:48;8.45;;;5.43;;
11396;SDS011;5754;43.726;7.416;2023-07-31T10:03:23;7.45;;;5.07;;
11396;SDS011;5754;43.726;7.416;2023-07-31T10:05:59;8.32;;;5.60;;
11396;SDS011;5754;43.726;7.416;2023-07-31T10:08:35;8.13;;;5.28;;
11396;SDS011;5754;43.726;7.416;2023-07-31T10:11:11;9.27;;;5.35;;
11396;SDS011;5754;43.726;7.416;2023-07-31T10:13:47;8.18;;;5.05;;
11396;SDS011;5754;43.726;7.416;2023-07-31T10:16:24;6.40;;;5.28;;
11396;SDS011;5754;43.726;7.416;2023-07-31T10:19:11;8.95;;;5.30;;
11396;SDS011;5754;43.726;7.416;2023-07-31T10:21:46;7.87;;;5.43;;
11396;SDS011;5754;43.726;7.416;2023-07-31T10:24:23;7.22;;;5.32;;
11396;SDS011;5754;43.726;7.416;2023-07-31T10:26:58;10.80;;;5.37;;
11396;SDS011;5754;43.726;7.416;2023-07-31T10:29:34;6.85;;;4.90;;
11396;SDS011;5754;43.726;7.416;2023-07-31T10:32:09;9.32;;;5.50;;
11396;SDS011;5754;43.726;7.416;2023-07-31T10:34:45;9.07;;;5.35;;
11396;SDS011;5754;43.726;7.416;2023-07-31T10:37:28;7.68;;;5.60;;
11396;SDS011;5754;43.726;7.416;2023-07-31T10:40:09;6.72;;;5.12;;
11396;SDS011;5754;43.726;7.416;2023-07-31T10:42:48;8.75;;;4.80;;
11396;SDS011;5754;43.726;7.416;2023-07-31T10:45:44;7.60;;;5.25;;
11396;SDS011;5754;43.726;7.416;2023-07-31T10:48:19;7.87;;;4.87;;
11396;SDS011;5754;43.726;7.416;2023-07-31T10:50:56;8.43;;;5.18;;
11396;SDS011;5754;43.726;7.416;2023-07-31T10:53:32;7.35;;;5.00;;
11396;SDS011;5754;43.726;7.416;2023-07-31T10:56:10;10.93;;;5.82;;
11396;SDS011;5754;43.726;7.416;2023-07-31T10:59:00;9.07;;;5.87;;
11396;SDS011;5754;43.726;7.416;2023-07-31T11:01:53;7.30;;;5.55;;
11396;SDS011;5754;43.726;7.416;2023-07-31T11:04:29;9.85;;;6.18;;
11396;SDS011;5754;43.726;7.416;2023-07-31T11:07:05;8.55;;;5.53;;
11396;SDS011;5754;43.726;7.416;2023-07-31T11:09:44;7.35;;;5.47;;
11396;SDS011;5754;43.726;7.416;2023-07-31T11:12:19;7.80;;;5.37;;
11396;SDS011;5754;43.726;7.416;2023-07-31T11:14:55;7.65;;;5.62;;
11396;SDS011;5754;43.726;7.416;2023-07-31T11:17:30;7.15;;;5.20;;
11396;SDS011;5754;43.726;7.416;2023-07-31T11:20:06;9.25;;;5.12;;
11396;SDS011;5754;43.726;7.416;2023-07-31T11:22:44;8.40;;;5.53;;
11396;SDS011;5754;43.726;7.416;2023-07-31T11:25:19;8.63;;;5.32;;
11396;SDS011;5754;43.726;7.416;2023-07-31T11:27:54;7.95;;;5.12;;
11396;SDS011;5754;43.726;7.416;2023-07-31T11:30:30;9.75;;;5.68;;
11396;SDS011;5754;43.726;7.416;2023-07-31T11:33:05;7.55;;;5.25;;
11396;SDS011;5754;43.726;7.416;2023-07-31T11:35:44;8.48;;;5.70;;
11396;SDS011;5754;43.726;7.416;2023-07-31T11:38:29;8.10;;;5.60;;
11396;SDS011;5754;43.726;7.416;2023-07-31T11:41:04;7.37;;;5.43;;
11396;SDS011;5754;43.726;7.416;2023-07-31T11:43:39;10.05;;;5.90;;
11396;SDS011;5754;43.726;7.416;2023-07-31T11:46:13;6.05;;;5.22;;
11396;SDS011;5754;43.726;7.416;2023-07-31T11:48:49;9.23;;;5.28;;
11396;SDS011;5754;43.726;7.416;2023-07-31T11:51:24;7.20;;;5.45;;
11396;SDS011;5754;43.726;7.416;2023-07-31T11:53:59;7.80;;;5.12;;
11396;SDS011;5754;43.726;7.416;2023-07-31T11:56:36;7.65;;;5.75;;
11396;SDS011;5754;43.726;7.416;2023-07-31T11:59:10;6.80;;;5.60;;
11396;SDS011;5754;43.726;7.416;2023-07-31T12:01:47;9.75;;;5.70;;
11396;SDS011;5754;43.726;7.416;2023-07-31T12:04:39;7.85;;;5.12;;
11396;SDS011;5754;43.726;7.416;2023-07-31T12:07:14;8.75;;;5.22;;
11396;SDS011;5754;43.726;7.416;2023-07-31T12:09:52;8.27;;;5.40;;
11396;SDS011;5754;43.726;7.416;2023-07-31T12:12:27;9.73;;;5.70;;
11396;SDS011;5754;43.726;7.416;2023-07-31T12:15:02;7.70;;;4.57;;
11396;SDS011;5754;43.726;7.416;2023-07-31T12:17:36;8.68;;;5.70;;
11396;SDS011;5754;43.726;7.416;2023-07-31T12:20:13;8.82;;;5.55;;
11396;SDS011;5754;43.726;7.416;2023-07-31T12:22:48;8.35;;;5.60;;
11396;SDS011;5754;43.726;7.416;2023-07-31T12:25:23;7.05;;;5.03;;
11396;SDS011;5754;43.726;7.416;2023-07-31T12:28:06;7.75;;;5.15;;
11396;SDS011;5754;43.726;7.416;2023-07-31T12:30:47;8.68;;;6.05;;
11396;SDS011;5754;43.726;7.416;2023-07-31T12:33:22;8.38;;;5.47;;
11396;SDS011;5754;43.726;7.416;2023-07-31T12:35:56;6.82;;;5.35;;
11396;SDS011;5754;43.726;7.416;2023-07-31T12:38:32;7.90;;;5.57;;
11396;SDS011;5754;43.726;7.416;2023-07-31T12:41:07;9.10;;;5.72;;
11396;SDS011;5754;43.726;7.416;2023-07-31T12:43:44;10.38;;;5.45;;
11396;SDS011;5754;43.726;7.416;2023-07-31T12:46:19;7.55;;;5.20;;
11396;SDS011;5754;43.726;7.416;2023-07-31T12:48:53;8.35;;;5.53;;
11396;SDS011;5754;43.726;7.416;2023-07-31T12:51:29;9.25;;;5.18;;
11396;SDS011;5754;43.726;7.416;2023-07-31T12:54:04;6.22;;;5.18;;
11396;SDS011;5754;43.726;7.416;2023-07-31T12:56:40;8.05;;;5.50;;
11396;SDS011;5754;43.726;7.416;2023-07-31T12:59:14;10.00;;;5.70;;
11396;SDS011;5754;43.726;7.416;2023-07-31T13:01:49;6.53;;;5.28;;
11396;SDS011;5754;43.726;7.416;2023-07-31T13:04:24;6.55;;;5.43;;
11396;SDS011;5754;43.726;7.416;2023-07-31T13:06:59;9.07;;;5.80;;
11396;SDS011;5754;43.726;7.416;2023-07-31T13:09:34;9.35;;;5.87;;
11396;SDS011;5754;43.726;7.416;2023-07-31T13:12:09;6.35;;;5.37;;
11396;SDS011;5754;43.726;7.416;2023-07-31T13:15:00;9.52;;;5.55;;
11396;SDS011;5754;43.726;7.416;2023-07-31T13:17:35;8.52;;;5.15;;
11396;SDS011;5754;43.726;7.416;2023-07-31T13:20:11;7.62;;;5.65;;
11396;SDS011;5754;43.726;7.416;2023-07-31T13:22:46;8.18;;;5.68;;
11396;SDS011;5754;43.726;7.416;2023-07-31T13:25:20;6.18;;;5.32;;
11396;SDS011;5754;43.726;7.416;2023-07-31T13:27:55;8.63;;;5.90;;
11396;SDS011;5754;43.726;7.416;2023-07-31T13:30:30;6.20;;;5.30;;
11396;SDS011;5754;43.726;7.416;2023-07-31T13:33:05;5.43;;;4.90;;
11396;SDS011;5754;43.726;7.416;2023-07-31T13:35:42;7.65;;;5.70;;
11396;SDS011;5754;43.726;7.416;2023-07-31T13:38:16;10.82;;;5.72;;
11396;SDS011;5754;43.726;7.416;2023-07-31T13:40:51;9.80;;;5.82;;
11396;SDS011;5754;43.726;7.416;2023-07-31T13:43:25;7.62;;;5.53;;
11396;SDS011;5754;43.726;7.416;2023-07-31T13:46:00;10.32;;;6.18;;
11396;SDS011;5754;43.726;7.416;2023-07-31T13:48:39;6.97;;;5.22;;
11396;SDS011;5754;43.726;7.416;2023-07-31T13:51:15;7.93;;;5.45;;
11396;SDS011;5754;43.726;7.416;2023-07-31T13:53:49;7.53;;;5.47;;
11396;SDS011;5754;43.726;7.416;2023-07-31T13:56:23;7.07;;;5.15;;
11396;SDS011;5754;43.726;7.416;2023-07-31T13:58:58;7.37;;;6.20;;
11396;SDS011;5754;43.726;7.416;2023-07-31T14:01:34;10.35;;;6.10;;
11396;SDS011;5754;43.726;7.416;2023-07-31T14:04:09;8.77;;;5.72;;
11396;SDS011;5754;43.726;7.416;2023-07-31T14:06:43;9.80;;;6.12;;
11396;SDS011;5754;43.726;7.416;2023-07-31T14:09:18;11.15;;;5.53;;
11396;SDS011;5754;43.726;7.416;2023-07-31T14:11:53;9.05;;;5.28;;
11396;SDS011;5754;43.726;7.416;2023-07-31T14:14:28;8.45;;;5.75;;
11396;SDS011;5754;43.726;7.416;2023-07-31T14:17:03;9.93;;;5.82;;
11396;SDS011;5754;43.726;7.416;2023-07-31T14:19:38;7.97;;;6.18;;
11396;SDS011;5754;43.726;7.416;2023-07-31T14:22:13;7.87;;;5.45;;
11396;SDS011;5754;43.726;7.416;2023-07-31T14:24:48;11.40;;;6.28;;
11396;SDS011;5754;43.726;7.416;2023-07-31T14:27:23;8.25;;;5.65;;
11396;SDS011;5754;43.726;7.416;2023-07-31T14:30:10;6.85;;;5.22;;
11396;SDS011;5754;43.726;7.416;2023-07-31T14:32:46;7.25;;;5.70;;
11396;SDS011;5754;43.726;7.416;2023-07-31T14:35:21;6.55;;;5.68;;
11396;SDS011;5754;43.726;7.416;2023-07-31T14:37:56;9.48;;;5.47;;
11396;SDS011;5754;43.726;7.416;2023-07-31T14:40:31;8.88;;;5.82;;
11396;SDS011;5754;43.726;7.416;2023-07-31T14:43:06;12.18;;;5.80;;
11396;SDS011;5754;43.726;7.416;2023-07-31T14:45:41;7.72;;;5.55;;
11396;SDS011;5754;43.726;7.416;2023-07-31T14:48:17;7.57;;;5.18;;
11396;SDS011;5754;43.726;7.416;2023-07-31T14:50:52;7.28;;;5.47;;
11396;SDS011;5754;43.726;7.416;2023-07-31T14:53:28;10.52;;;5.22;;
11396;SDS011;5754;43.726;7.416;2023-07-31T14:56:02;10.88;;;5.43;;
11396;SDS011;5754;43.726;7.416;2023-07-31T14:58:38;7.95;;;5.40;;
11396;SDS011;5754;43.726;7.416;2023-07-31T15:01:13;6.50;;;5.25;;
11396;SDS011;5754;43.726;7.416;2023-07-31T15:03:49;6.20;;;5.05;;
11396;SDS011;5754;43.726;7.416;2023-07-31T15:06:24;7.75;;;5.78;;
11396;SDS011;5754;43.726;7.416;2023-07-31T15:09:14;12.27;;;5.55;;
11396;SDS011;5754;43.726;7.416;2023-07-31T15:11:49;7.80;;;5.72;;
11396;SDS011;5754;43.726;7.416;2023-07-31T15:14:24;9.20;;;5.40;;
11396;SDS011;5754;43.726;7.416;2023-07-31T15:17:01;10.10;;;5.87;;
11396;SDS011;5754;43.726;7.416;2023-07-31T15:19:37;8.00;;;5.75;;
11396;SDS011;5754;43.726;7.416;2023-07-31T15:22:12;7.50;;;5.22;;
11396;SDS011;5754;43.726;7.416;2023-07-31T15:24:47;6.18;;;4.80;;
11396;SDS011;5754;43.726;7.416;2023-07-31T15:27:22;8.10;;;5.40;;
11396;SDS011;5754;43.726;7.416;2023-07-31T15:29:57;7.05;;;4.80;;
11396;SDS011;5754;43.726;7.416;2023-07-31T15:32:31;6.45;;;4.65;;
11396;SDS011;5754;43.726;7.416;2023-07-31T15:35:06;6.60;;;5.35;;
11396;SDS011;5754;43.726;7.416;2023-07-31T15:37:41;8.85;;;5.35;;
11396;SDS011;5754;43.726;7.416;2023-07-31T15:40:15;8.25;;;5.18;;
11396;SDS011;5754;43.726;7.416;2023-07-31T15:45:37;7.97;;;5.57;;
11396;SDS011;5754;43.726;7.416;2023-07-31T15:48:13;6.45;;;5.18;;
11396;SDS011;5754;43.726;7.416;2023-07-31T15:50:48;6.50;;;4.97;;
11396;SDS011;5754;43.726;7.416;2023-07-31T15:53:24;6.90;;;5.28;;